Time;durP1;ratioP1;P1;durP2;ratioP2;P2;SDS_P1;SDS_P2;PMS_P1;PMS_P2;Temp;Humidity;BMP_temperature;BMP_pressure;BME280_temperature;BME280_humidity;BME280_pressure;Samples;Min_cycle;Max_cycle;Signal;HPM_P1;HPM_P2
2023/05/14 00:01:54;;;;;;;0.00;0.00;;;;;;;9.70;100.00;98682.31;4900542;29;20317;-60
2023/05/14 00:04:22;;;;;;;0.00;0.00;;;;;;;9.79;100.00;98672.84;4899335;29;20812;-59
2023/05/14 00:06:49;;;;;;;0.00;0.00;;;;;;;9.80;100.00;98674.47;4902731;29;20342;-60
2023/05/14 00:09:16;;;;;;;0.00;0.00;;;;;;;9.86;100.00;98674.72;4900060;29;20244;-60
2023/05/14 00:11:42;;;;;;;0.00;0.00;;;;;;;9.90;100.00;98676.06;4902551;29;20285;-60
2023/05/14 00:14:09;;;;;;;0.00;0.00;;;;;;;9.95;100.00;98672.19;4899465;29;20229;-59
2023/05/14 00:16:42;;;;;;;0.00;0.00;;;;;;;10.01;100.00;98666.41;4903044;29;20271;-60
2023/05/14 00:19:09;;;;;;;0.00;0.00;;;;;;;10.07;100.00;98665.00;4899562;29;20248;-59
2023/05/14 00:21:40;;;;;;;0.00;0.00;;;;;;;10.07;100.00;98655.38;4902531;29;20250;-60
2023/05/14 00:24:07;;;;;;;0.00;0.00;;;;;;;10.12;100.00;98660.16;4899945;29;20625;-60
2023/05/14 00:26:34;;;;;;;0.00;0.00;;;;;;;10.11;100.00;98654.13;4902496;29;20242;-59
2023/05/14 00:29:00;;;;;;;0.00;0.00;;;;;;;10.18;100.00;98649.97;4901361;29;20234;-59
2023/05/14 00:31:27;;;;;;;0.00;0.00;;;;;;;10.11;100.00;98654.13;4897515;29;20354;-60
2023/05/14 00:33:53;;;;;;;0.00;0.00;;;;;;;10.05;100.00;98654.72;4902374;29;20290;-59
2023/05/14 00:36:20;;;;;;;0.00;0.00;;;;;;;9.98;100.00;98643.22;4898084;29;20242;-58
2023/05/14 00:38:48;;;;;;;0.00;0.00;;;;;;;9.95;100.00;98641.75;4900437;29;20238;-59
2023/05/14 00:41:15;;;;;;;0.00;0.00;;;;;;;9.84;100.00;98642.75;4896034;29;20731;-59
2023/05/14 00:43:42;;;;;;;0.00;0.00;;;;;;;9.77;100.00;98651.31;4902003;29;20246;-59
2023/05/14 00:46:08;;;;;;;0.00;0.00;;;;;;;9.73;100.00;98642.94;4913806;29;20246;-60
2023/05/14 00:48:35;;;;;;;0.00;0.00;;;;;;;9.65;100.00;98635.03;4916516;28;20262;-60
2023/05/14 00:51:02;;;;;;;0.00;0.00;;;;;;;9.60;100.00;98638.06;4916415;29;20291;-60
2023/05/14 00:53:31;;;;;;;0.00;0.00;;;;;;;9.62;100.00;98630.94;4900067;29;20248;-60
2023/05/14 00:55:59;;;;;;;0.00;0.00;;;;;;;9.57;100.00;98631.34;4920407;29;20349;-59
2023/05/14 00:58:26;;;;;;;0.00;0.00;;;;;;;9.53;100.00;98629.19;4902474;29;20234;-59
2023/05/14 01:00:53;;;;;;;0.00;0.00;;;;;;;9.50;100.00;98626.88;4905680;29;20245;-59
2023/05/14 01:03:19;;;;;;;0.00;0.00;;;;;;;9.44;100.00;98630.88;4901853;29;20617;-59
2023/05/14 01:05:54;;;;;;;0.00;0.00;;;;;;;9.45;100.00;98629.91;4906789;29;20273;-59
2023/05/14 01:08:30;;;;;;;0.00;0.00;;;;;;;9.40;100.00;98626.91;4902151;29;20334;-59
2023/05/14 01:11:04;;;;;;;0.00;0.00;;;;;;;9.37;100.00;98628.00;4903753;29;20252;-59
2023/05/14 01:13:38;;;;;;;0.00;0.00;;;;;;;9.31;100.00;98633.78;4901856;29;20249;-59
2023/05/14 01:16:12;;;;;;;0.00;0.00;;;;;;;9.28;100.00;98632.31;4919261;29;20231;-59
2023/05/14 01:18:40;;;;;;;0.00;0.00;;;;;;;9.32;100.00;98632.81;4917970;29;20299;-58
2023/05/14 01:21:19;;;;;;;0.00;0.00;;;;;;;9.28;100.00;98632.31;4918375;29;20239;-59
2023/05/14 01:23:47;;;;;;;0.00;0.00;;;;;;;9.22;100.00;98630.28;4918242;28;20744;-58
2023/05/14 01:26:14;;;;;;;0.00;0.00;;;;;;;9.19;100.00;98635.75;4899502;28;20249;-59
2023/05/14 01:28:41;;;;;;;0.00;0.00;;;;;;;9.22;100.00;98638.09;4903670;29;20740;-59
2023/05/14 01:31:17;;;;;;;0.00;0.00;;;;;;;9.25;100.00;98636.97;4897410;29;20226;-59
2023/05/14 01:33:44;;;;;;;0.00;0.00;;;;;;;9.18;100.00;98639.31;4919649;29;20246;-59
2023/05/14 01:36:11;;;;;;;0.00;0.00;;;;;;;9.11;100.00;98640.84;4902087;29;20724;-59
2023/05/14 01:38:40;;;;;;;0.00;0.00;;;;;;;9.09;100.00;98637.56;4919089;29;20243;-59
2023/05/14 01:41:08;;;;;;;0.00;0.00;;;;;;;9.00;100.00;98634.03;4902518;29;20267;-60
2023/05/14 01:43:35;;;;;;;0.00;0.00;;;;;;;8.96;100.00;98632.69;4901482;29;20244;-59
2023/05/14 01:46:03;;;;;;;0.00;0.00;;;;;;;8.89;100.00;98632.41;4903968;29;20835;-59
2023/05/14 01:48:30;;;;;;;0.00;0.00;;;;;;;8.90;100.00;98631.44;4901739;29;20237;-59
2023/05/14 01:50:57;;;;;;;0.00;0.00;;;;;;;8.82;100.00;98637.34;4919120;29;20631;-60
2023/05/14 01:53:23;;;;;;;0.00;0.00;;;;;;;8.78;100.00;98640.34;4899995;29;20230;-59
2023/05/14 01:55:50;;;;;;;0.00;0.00;;;;;;;8.74;100.00;98642.44;4904430;29;20786;-60
2023/05/14 01:58:18;;;;;;;0.00;0.00;;;;;;;8.74;100.00;98634.63;4901883;29;20631;-59
2023/05/14 02:00:45;;;;;;;0.00;0.00;;;;;;;8.72;100.00;98639.13;4918842;29;20294;-58
2023/05/14 02:03:11;;;;;;;0.00;0.00;;;;;;;8.69;100.00;98634.22;4901904;29;20231;-59
2023/05/14 02:05:39;;;;;;;0.00;0.00;;;;;;;8.65;100.00;98635.44;4900905;29;20246;-60
2023/05/14 02:08:13;;;;;;;0.00;0.00;;;;;;;8.62;100.00;98633.94;4898277;29;20232;-61
2023/05/14 02:10:41;;;;;;;0.00;0.00;;;;;;;8.59;100.00;98639.41;4856926;29;20237;-60
2023/05/14 02:13:08;;;;;;;0.00;0.00;;;;;;;8.55;100.00;98635.44;4903292;29;20243;-60
2023/05/14 02:15:36;;;;;;;0.00;0.00;;;;;;;8.48;100.00;98624.75;4903725;29;20243;-60
2023/05/14 02:18:02;;;;;;;0.00;0.00;;;;;;;8.52;100.00;98627.91;4841108;29;20938;-59
2023/05/14 02:20:29;;;;;;;0.00;0.00;;;;;;;8.47;100.00;98623.09;4903601;29;20587;-59
2023/05/14 02:22:55;;;;;;;0.00;0.00;;;;;;;8.50;100.00;98632.44;4903716;29;20243;-60
2023/05/14 02:25:22;;;;;;;0.00;0.00;;;;;;;8.57;100.00;98636.13;4900861;29;20238;-60
2023/05/14 02:27:49;;;;;;;0.00;0.00;;;;;;;8.52;100.00;98631.34;4903501;29;20239;-60
2023/05/14 02:30:16;;;;;;;0.00;0.00;;;;;;;8.47;100.00;98623.09;4914426;29;20635;-60
2023/05/14 02:32:45;;;;;;;0.00;0.00;;;;;;;8.44;100.00;98623.38;4902479;29;20264;-60
2023/05/14 02:35:11;;;;;;;0.00;0.00;;;;;;;8.43;100.00;98624.31;4899258;28;20245;-60
2023/05/14 02:37:47;;;;;;;0.00;0.00;;;;;;;8.41;100.00;98615.84;4901689;29;20254;-59
2023/05/14 02:40:19;;;;;;;0.00;0.00;;;;;;;8.41;100.00;98618.44;4871413;29;20326;-59
2023/05/14 02:42:46;;;;;;;0.00;0.00;;;;;;;8.44;100.00;98617.38;4831055;29;20238;-59
2023/05/14 02:45:12;;;;;;;0.00;0.00;;;;;;;8.40;100.00;98617.63;4887143;29;20619;-59
2023/05/14 02:47:39;;;;;;;0.00;0.00;;;;;;;8.42;100.00;98623.53;4917952;29;20901;-59
2023/05/14 02:50:10;;;;;;;0.00;0.00;;;;;;;8.42;100.00;98618.31;4904403;29;21718;-59
2023/05/14 02:52:36;;;;;;;0.00;0.00;;;;;;;8.34;100.00;98623.38;4901013;29;20661;-59
2023/05/14 02:55:04;;;;;;;0.00;0.00;;;;;;;8.31;100.00;98621.06;4881140;29;20242;-59
2023/05/14 02:57:30;;;;;;;0.00;0.00;;;;;;;8.26;100.00;98620.63;4898900;29;20321;-59
2023/05/14 02:59:57;;;;;;;0.00;0.00;;;;;;;8.26;100.00;98620.63;4899791;29;20250;-59
2023/05/14 03:02:24;;;;;;;0.00;0.00;;;;;;;8.28;100.00;98623.94;4898995;29;20230;-59
2023/05/14 03:04:54;;;;;;;0.00;0.00;;;;;;;8.32;100.00;98622.69;4861115;29;20261;-61
2023/05/14 03:07:32;;;;;;;0.00;0.00;;;;;;;8.52;100.00;98625.31;4857618;29;20750;-61
2023/05/14 03:10:03;;;;;;;0.00;0.00;;;;;;;8.55;100.00;98620.66;4895459;29;20704;-60
2023/05/14 03:12:29;;;;;;;0.00;0.00;;;;;;;8.57;100.00;98618.75;4888339;29;20769;-60
2023/05/14 03:14:56;;;;;;;0.00;0.00;;;;;;;8.62;100.00;98620.13;4884672;28;20223;-60
2023/05/14 03:17:23;;;;;;;0.00;0.00;;;;;;;8.64;100.00;98624.19;4890165;29;20621;-60
2023/05/14 03:19:51;;;;;;;0.00;0.00;;;;;;;8.65;100.00;98612.84;4909124;29;20237;-60
2023/05/14 03:22:17;;;;;;;0.00;0.00;;;;;;;8.71;100.00;98614.06;4915050;29;20242;-60
2023/05/14 03:24:45;;;;;;;0.00;0.00;;;;;;;8.73;100.00;98611.31;4903558;29;20223;-59
2023/05/14 03:27:12;;;;;;;0.00;0.00;;;;;;;8.86;100.00;98609.25;4898400;29;20229;-60
2023/05/14 03:29:38;;;;;;;0.00;0.00;;;;;;;8.89;100.00;98611.56;4903553;29;20249;-58
2023/05/14 03:32:09;;;;;;;0.00;0.00;;;;;;;8.95;100.00;98603.19;5069700;23;20324;-61
2023/05/14 03:34:36;;;;;;;0.00;0.00;;;;;;;8.91;100.00;98606.25;4853349;29;20660;-59
2023/05/14 03:37:03;;;;;;;0.00;0.00;;;;;;;8.86;100.00;98606.66;4885948;29;20335;-60
2023/05/14 03:39:30;;;;;;;0.00;0.00;;;;;;;8.90;100.00;98602.00;4900516;29;20237;-59
2023/05/14 03:41:58;;;;;;;0.00;0.00;;;;;;;8.90;100.00;98599.41;4906644;29;20236;-59
2023/05/14 03:44:25;;;;;;;0.00;0.00;;;;;;;8.92;100.00;98590.47;4886921;29;20244;-60
2023/05/14 03:46:52;;;;;;;0.00;0.00;;;;;;;8.94;100.00;98593.75;4891714;29;20278;-59
2023/05/14 03:49:19;;;;;;;0.00;0.00;;;;;;;9.00;100.00;98594.97;4903431;29;20255;-60
2023/05/14 03:51:45;;;;;;;0.00;0.00;;;;;;;9.02;100.00;98598.25;4889624;29;20277;-60
2023/05/14 03:54:12;;;;;;;0.00;0.00;;;;;;;9.10;100.00;98595.75;4902554;29;20697;-60
2023/05/14 03:56:44;;;;;;;0.00;0.00;;;;;;;9.11;100.00;98599.19;4907026;29;20232;-60
2023/05/14 03:59:12;;;;;;;0.00;0.00;;;;;;;9.18;100.00;98596.81;4886777;29;20330;-60
2023/05/14 04:01:43;;;;;;;0.00;0.00;;;;;;;9.21;100.00;98593.94;4888143;29;20327;-59
2023/05/14 04:04:09;;;;;;;0.00;0.00;;;;;;;9.24;100.00;98591.88;4903165;29;20600;-60
2023/05/14 04:07:01;;;;;;;0.00;0.00;;;;;;;9.38;100.00;98601.00;4908228;29;20265;-59
2023/05/14 04:09:29;;;;;;;0.00;0.00;;;;;;;9.42;100.00;98594.53;4904149;29;20245;-60
2023/05/14 04:11:56;;;;;;;0.00;0.00;;;;;;;9.50;100.00;98596.44;4896650;29;20782;-59
2023/05/14 04:14:24;;;;;;;0.00;0.00;;;;;;;9.67;100.00;98599.22;4879481;29;20234;-59
2023/05/14 04:16:51;;;;;;;0.00;0.00;;;;;;;9.72;100.00;98607.41;4906346;29;20601;-62
2023/05/14 04:19:18;;;;;;;0.00;0.00;;;;;;;9.75;100.00;98607.13;4887548;29;20218;-59
2023/05/14 04:21:44;;;;;;;0.00;0.00;;;;;;;9.85;100.00;98615.72;4893648;29;20734;-60
2023/05/14 04:24:11;;;;;;;0.00;0.00;;;;;;;9.94;100.00;98607.97;4903971;29;20237;-61
2023/05/14 04:26:42;;;;;;;0.00;0.00;;;;;;;10.01;100.00;98606.41;4907057;29;20229;-60
2023/05/14 04:29:09;;;;;;;0.00;0.00;;;;;;;10.12;100.00;98611.44;4908050;29;20266;-61
2023/05/14 04:31:41;;;;;;;0.00;0.00;;;;;;;10.17;100.00;98606.59;4911034;29;20277;-60
2023/05/14 04:34:08;;;;;;;0.00;0.00;;;;;;;10.23;100.00;98610.38;4907322;29;20329;-61
2023/05/14 04:36:39;;;;;;;0.00;0.00;;;;;;;10.28;100.00;98604.72;4911085;29;20232;-61
2023/05/14 04:39:08;;;;;;;0.00;0.00;;;;;;;10.36;100.00;98609.19;4910719;29;20230;-61
2023/05/14 04:41:35;;;;;;;0.00;0.00;;;;;;;10.43;100.00;98612.88;4908092;29;20238;-60
2023/05/14 04:44:05;;;;;;;0.00;0.00;;;;;;;10.44;100.00;98617.94;4910375;29;20237;-61
2023/05/14 04:46:31;;;;;;;0.00;0.00;;;;;;;10.44;100.00;98604.91;4895298;29;20227;-61
2023/05/14 04:48:59;;;;;;;0.00;0.00;;;;;;;10.48;100.00;98606.25;4911272;29;20798;-60
2023/05/14 04:51:26;;;;;;;0.00;0.00;;;;;;;10.57;100.00;98609.72;4908094;29;20238;-61
2023/05/14 04:53:53;;;;;;;0.00;0.00;;;;;;;10.59;100.00;98602.56;4911178;29;20236;-60
2023/05/14 04:56:20;;;;;;;0.00;0.00;;;;;;;10.61;100.00;98613.66;4908254;29;20294;-60
2023/05/14 04:58:46;;;;;;;0.00;0.00;;;;;;;10.70;100.00;98608.50;4911444;29;20277;-61
2023/05/14 05:01:13;;;;;;;0.00;0.00;;;;;;;10.75;100.00;98608.88;4907799;29;20724;-61
2023/05/14 05:03:40;;;;;;;0.00;0.00;;;;;;;10.85;100.00;98608.78;4910780;29;20239;-60
2023/05/14 05:06:08;;;;;;;0.00;0.00;;;;;;;10.90;100.00;98604.75;4911169;29;20238;-61
2023/05/14 05:08:36;;;;;;;0.00;0.00;;;;;;;10.97;100.00;98610.16;4909001;29;20299;-60
2023/05/14 05:11:03;;;;;;;0.00;0.00;;;;;;;11.07;100.00;98617.91;4910914;29;20227;-61
2023/05/14 05:13:31;;;;;;;0.00;0.00;;;;;;;11.14;100.00;98603.22;4907200;29;20243;-60
2023/05/14 05:15:57;;;;;;;0.00;0.00;;;;;;;11.25;100.00;98603.94;4910856;29;20723;-60
2023/05/14 05:18:24;;;;;;;0.00;0.00;;;;;;;11.37;100.00;98610.53;4907872;29;20231;-61
2023/05/14 05:20:50;;;;;;;0.00;0.00;;;;;;;11.45;100.00;98601.94;4910350;29;20239;-61
2023/05/14 05:23:18;;;;;;;0.00;0.00;;;;;;;11.52;100.00;98608.16;4906520;29;20231;-61
2023/05/14 05:25:45;;;;;;;0.00;0.00;;;;;;;11.61;100.00;98609.84;4909537;29;20295;-61
2023/05/14 05:28:12;;;;;;;0.00;0.00;;;;;;;11.74;100.00;98619.00;4908186;29;20233;-61
2023/05/14 05:30:38;;;;;;;0.00;0.00;;;;;;;11.76;100.00;98624.91;4910235;29;20305;-61
2023/05/14 05:33:05;;;;;;;0.00;0.00;;;;;;;11.86;100.00;98612.50;4908725;29;20308;-61
2023/05/14 05:35:31;;;;;;;0.00;0.00;;;;;;;11.94;100.00;98619.56;4907440;29;20250;-61
2023/05/14 05:37:58;;;;;;;0.00;0.00;;;;;;;12.06;100.00;98623.56;4909787;29;20236;-60
2023/05/14 05:40:26;;;;;;;0.00;0.00;;;;;;;12.11;100.00;98625.69;4907305;29;20269;-61
2023/05/14 05:42:52;;;;;;;0.00;0.00;;;;;;;12.20;100.00;98623.88;4901034;29;20235;-61
2023/05/14 05:45:19;;;;;;;0.00;0.00;;;;;;;12.23;100.00;98618.31;4907518;29;20247;-61
2023/05/14 05:47:46;;;;;;;0.00;0.00;;;;;;;12.20;100.00;98616.03;4909856;29;20608;-61
2023/05/14 05:50:13;;;;;;;0.00;0.00;;;;;;;12.24;100.00;98617.34;4907702;29;20652;-61
2023/05/14 05:52:40;;;;;;;0.00;0.00;;;;;;;12.26;100.00;98623.25;4910386;29;20239;-61
2023/05/14 05:55:08;;;;;;;0.00;0.00;;;;;;;12.14;100.00;98622.75;4908511;29;20321;-61
2023/05/14 05:57:35;;;;;;;0.00;0.00;;;;;;;12.27;100.00;98616.22;4906808;29;20606;-61
2023/05/14 06:00:11;;;;;;;0.00;0.00;;;;;;;12.51;100.00;98621.47;4909706;29;20222;-61
2023/05/14 06:02:39;;;;;;;0.00;0.00;;;;;;;12.74;100.00;98618.16;4907574;29;20673;-61
2023/05/14 06:05:07;;;;;;;0.00;0.00;;;;;;;12.86;98.58;98623.91;4910046;29;20228;-61
2023/05/14 06:07:34;;;;;;;0.00;0.00;;;;;;;13.02;97.01;98630.91;4907752;29;20294;-61
2023/05/14 06:10:00;;;;;;;0.00;0.00;;;;;;;13.30;96.56;98630.53;4909734;29;20286;-61
2023/05/14 06:12:27;;;;;;;0.00;0.00;;;;;;;13.55;95.49;98635.72;4907016;29;23156;-61
2023/05/14 06:14:56;;;;;;;0.00;0.00;;;;;;;13.45;94.56;98624.63;4910066;29;20277;-61
2023/05/14 06:17:23;;;;;;;0.00;0.00;;;;;;;13.58;93.78;98622.28;4906509;29;20249;-61
2023/05/14 06:19:50;;;;;;;0.00;0.00;;;;;;;13.45;95.30;98622.81;4909819;29;20222;-61
2023/05/14 06:22:16;;;;;;;0.00;0.00;;;;;;;13.60;95.90;98617.69;4906314;29;20244;-61
2023/05/14 06:24:43;;;;;;;0.00;0.00;;;;;;;13.67;94.33;98618.63;4909439;29;20384;-61
2023/05/14 06:27:10;;;;;;;0.00;0.00;;;;;;;13.78;94.24;98621.88;4906442;29;20246;-61
2023/05/14 06:29:36;;;;;;;0.00;0.00;;;;;;;13.86;92.91;98620.00;4909685;29;20290;-61
2023/05/14 06:32:05;;;;;;;0.00;0.00;;;;;;;13.86;93.03;98625.25;4909427;29;20656;-61
2023/05/14 06:34:32;;;;;;;0.00;0.00;;;;;;;13.94;92.28;98616.50;4905519;29;20297;-61
2023/05/14 06:36:59;;;;;;;0.00;0.00;;;;;;;14.08;88.29;98614.13;4907354;29;20241;-61
2023/05/14 06:39:25;;;;;;;0.00;0.00;;;;;;;13.95;85.04;98612.91;4906778;29;20271;-61
2023/05/14 06:41:52;;;;;;;0.00;0.00;;;;;;;13.98;82.96;98614.38;4909388;29;20244;-61
2023/05/14 06:44:19;;;;;;;0.00;0.00;;;;;;;14.05;83.24;98617.94;4906470;29;20245;-61
2023/05/14 06:46:45;;;;;;;0.00;0.00;;;;;;;14.09;82.45;98613.97;4909209;29;20237;-60
2023/05/14 06:49:13;;;;;;;0.00;0.00;;;;;;;14.09;82.30;98618.41;4905606;29;20233;-61
2023/05/14 06:51:43;;;;;;;0.00;0.00;;;;;;;13.94;82.16;98616.50;4908583;29;20236;-61
2023/05/14 06:54:09;;;;;;;0.00;0.00;;;;;;;14.05;81.30;98614.50;4906348;29;20237;-61
2023/05/14 06:56:42;;;;;;;0.00;0.00;;;;;;;14.05;82.30;98617.13;4908353;29;20230;-61
2023/05/14 06:59:09;;;;;;;0.00;0.00;;;;;;;14.13;82.44;98617.06;4906317;29;20582;-61
2023/05/14 07:01:39;;;;;;;0.00;0.00;;;;;;;14.26;80.00;98619.94;4908622;29;20245;-61
2023/05/14 07:04:06;;;;;;;0.00;0.00;;;;;;;14.30;80.67;98610.72;4908836;29;20311;-61
2023/05/14 07:06:34;;;;;;;0.00;0.00;;;;;;;14.24;80.61;98607.97;4906774;29;20639;-61
2023/05/14 07:09:01;;;;;;;0.00;0.00;;;;;;;14.26;79.39;98614.69;4896307;29;20244;-62
2023/05/14 07:11:28;;;;;;;0.00;0.00;;;;;;;14.31;79.45;98611.50;4906413;29;20331;-61
2023/05/14 07:13:55;;;;;;;0.00;0.00;;;;;;;14.49;78.99;98610.41;4908290;29;20237;-61
2023/05/14 07:16:21;;;;;;;0.00;0.00;;;;;;;14.45;79.16;98615.22;4906190;29;20243;-61
2023/05/14 07:18:48;;;;;;;0.00;0.00;;;;;;;14.57;78.65;98600.66;4906916;29;20295;-61
2023/05/14 07:21:15;;;;;;;0.00;0.00;;;;;;;14.57;77.23;98607.72;4904426;29;20624;-61
2023/05/14 07:23:43;;;;;;;0.00;0.00;;;;;;;14.73;77.83;98607.59;4907447;29;20550;-61
2023/05/14 07:26:09;;;;;;;6.50;3.80;;;;;;;14.76;77.82;98611.69;4905881;29;20742;-62
2023/05/14 07:28:36;;;;;;;8.47;6.40;;;;;;;14.78;76.66;98612.34;4908583;29;20239;-62
2023/05/14 07:31:03;;;;;;;8.33;6.10;;;;;;;14.68;76.59;98609.91;4908247;29;20712;-61
2023/05/14 07:33:30;;;;;;;7.83;6.20;;;;;;;14.85;76.61;98605.34;4905273;29;20241;-62
2023/05/14 07:35:56;;;;;;;7.10;5.93;;;;;;;15.20;73.93;98605.66;4908633;29;20233;-62
2023/05/14 07:38:24;;;;;;;7.37;5.97;;;;;;;15.03;72.66;98594.50;4905298;29;20236;-61
2023/05/14 07:40:52;;;;;;;6.77;5.63;;;;;;;15.32;72.83;98598.16;4908132;29;20265;-62
2023/05/14 07:43:18;;;;;;;8.57;6.37;;;;;;;15.27;72.46;98597.88;4903731;29;20720;-62
2023/05/14 07:45:45;;;;;;;5.93;5.33;;;;;;;15.43;72.48;98599.50;4908065;29;20229;-61
2023/05/14 07:48:11;;;;;;;6.30;5.50;;;;;;;15.55;72.03;98594.56;4894726;29;20243;-62
2023/05/14 07:50:38;;;;;;;7.80;5.37;;;;;;;15.74;72.07;98598.44;4908083;29;20257;-62
2023/05/14 07:53:05;;;;;;;8.37;5.00;;;;;;;15.80;70.54;98594.25;4907763;29;20233;-62
2023/05/14 07:55:31;;;;;;;6.33;5.20;;;;;;;15.77;69.90;98594.63;4905240;29;20260;-62
2023/05/14 07:57:59;;;;;;;5.50;4.67;;;;;;;15.74;69.22;98589.72;4906856;29;20240;-62
2023/05/14 08:00:26;;;;;;;4.60;4.10;;;;;;;15.62;68.89;98589.41;4894579;29;20246;-61
2023/05/14 08:02:52;;;;;;;6.47;4.60;;;;;;;15.94;66.92;98590.78;4907227;29;20712;-61
2023/05/14 08:05:19;;;;;;;4.83;4.33;;;;;;;16.03;66.24;98586.22;4905019;29;20240;-61
2023/05/14 08:07:46;;;;;;;7.20;3.93;;;;;;;16.17;64.92;98587.19;4908515;29;20242;-61
2023/05/14 08:10:12;;;;;;;6.33;4.70;;;;;;;16.32;65.04;98589.72;4905448;29;20794;-61
2023/05/14 08:12:39;;;;;;;4.63;3.70;;;;;;;16.51;63.92;98590.09;4908137;29;20278;-61
2023/05/14 08:15:09;;;;;;;3.93;3.53;;;;;;;16.40;63.80;98595.88;4906826;29;20233;-61
2023/05/14 08:17:35;;;;;;;4.10;3.57;;;;;;;16.50;61.24;98593.75;4905285;29;20319;-60
2023/05/14 08:20:02;;;;;;;3.77;3.13;;;;;;;16.67;62.63;98589.81;4908178;29;20238;-61
2023/05/14 08:22:29;;;;;;;5.10;3.70;;;;;;;16.55;65.49;98580.81;4904070;29;20244;-61
2023/05/14 08:24:55;;;;;;;4.87;3.67;;;;;;;16.71;66.52;98584.97;4907333;29;20235;-61
2023/05/14 08:27:22;;;;;;;5.40;4.00;;;;;;;16.75;68.13;98582.78;4904414;29;20255;-61
2023/05/14 08:29:48;;;;;;;4.43;3.90;;;;;;;16.90;67.17;98578.22;4908457;29;20259;-61
2023/05/14 08:32:16;;;;;;;9.17;4.37;;;;;;;16.74;67.57;98581.94;4902797;29;20591;-62
2023/05/14 08:34:43;;;;;;;6.83;6.03;;;;;;;16.42;71.50;98583.34;4907723;29;20243;-66
2023/05/14 08:37:10;;;;;;;7.90;5.47;;;;;;;16.30;71.76;98573.31;4904016;29;20230;-62
2023/05/14 08:39:36;;;;;;;6.97;5.63;;;;;;;15.86;73.39;98574.28;4907802;29;20245;-64
2023/05/14 08:42:06;;;;;;;7.87;5.93;;;;;;;15.85;74.87;98575.28;4907291;29;20723;-63
2023/05/14 08:44:38;;;;;;;6.53;5.83;;;;;;;15.93;75.28;98578.63;4903762;29;20233;-62
2023/05/14 08:47:05;;;;;;;9.70;6.07;;;;;;;15.98;77.52;98572.78;4903918;29;20229;-63
2023/05/14 08:49:40;;;;;;;8.30;5.93;;;;;;;16.11;75.23;98581.81;4903110;29;20230;-61
2023/05/14 08:52:07;;;;;;;4.80;4.30;;;;;;;16.29;69.08;98574.31;4908176;29;20717;-61
2023/05/14 08:54:35;;;;;;;7.50;5.27;;;;;;;16.49;70.08;98573.66;4890059;29;20251;-62
2023/05/14 08:57:03;;;;;;;5.43;4.90;;;;;;;16.79;69.44;98571.66;4907304;29;20781;-62
2023/05/14 08:59:29;;;;;;;7.50;5.00;;;;;;;17.09;67.35;98570.63;4904643;29;20247;-62
2023/05/14 09:01:58;;;;;;;6.30;4.83;;;;;;;17.26;68.32;98566.66;4907579;29;20240;-61
2023/05/14 09:04:25;;;;;;;6.00;5.13;;;;;;;17.35;64.06;98569.97;4904084;29;20298;-61
2023/05/14 09:06:54;;;;;;;5.10;4.47;;;;;;;16.67;66.74;98567.91;4907684;29;20698;-61
2023/05/14 09:09:21;;;;;;;5.00;4.50;;;;;;;17.23;64.43;98560.97;4903361;29;20690;-61
2023/05/14 09:11:49;;;;;;;6.07;4.90;;;;;;;17.93;64.77;98560.00;4906719;29;20234;-61
2023/05/14 09:14:16;;;;;;;9.40;4.67;;;;;;;18.13;63.98;98560.06;4906466;29;20295;-61
2023/05/14 09:16:45;;;;;;;4.33;3.83;;;;;;;18.11;61.79;98565.53;4911191;29;20659;-61
2023/05/14 09:19:12;;;;;;;4.53;3.70;;;;;;;18.39;59.64;98563.72;4907447;29;21216;-62
2023/05/14 09:21:44;;;;;;;4.37;3.93;;;;;;;17.90;59.90;98557.75;4909721;29;20239;-61
2023/05/14 09:24:18;;;;;;;5.63;3.60;;;;;;;17.62;60.35;98570.06;4906943;29;20235;-63
2023/05/14 09:26:49;;;;;;;5.93;4.13;;;;;;;17.52;61.92;98565.16;4910167;29;20284;-61
2023/05/14 09:29:15;;;;;;;4.23;3.83;;;;;;;17.47;61.38;98559.66;4907586;29;20263;-62
2023/05/14 09:31:42;;;;;;;4.73;4.23;;;;;;;16.83;63.34;98551.81;4910293;29;20333;-61
2023/05/14 09:34:09;;;;;;;5.43;4.00;;;;;;;17.04;63.76;98555.41;4895524;29;20262;-61
2023/05/14 09:37:03;;;;;;;5.10;4.00;;;;;;;17.34;63.29;98559.59;4910353;29;20718;-61
2023/05/14 09:39:33;;;;;;;4.60;4.20;;;;;;;17.29;62.39;98554.09;4907063;29;20290;-61
2023/05/14 09:42:00;;;;;;;5.50;4.07;;;;;;;17.37;62.20;98544.22;4910767;29;20241;-61
2023/05/14 09:44:27;;;;;;;4.93;4.20;;;;;;;17.43;62.30;98553.16;4906967;29;20310;-61
2023/05/14 09:46:54;;;;;;;5.67;4.07;;;;;;;17.26;64.26;98545.56;4910855;29;20283;-61
2023/05/14 09:49:21;;;;;;;5.37;3.97;;;;;;;17.30;61.40;98551.28;4907577;29;20242;-61
2023/05/14 09:51:48;;;;;;;5.20;4.30;;;;;;;17.18;63.92;98552.84;4911017;29;20234;-61
2023/05/14 09:54:15;;;;;;;4.63;3.73;;;;;;;16.98;63.02;98550.91;4908249;29;20307;-61
2023/05/14 09:56:44;;;;;;;4.83;3.60;;;;;;;17.11;61.86;98551.00;4910024;29;20315;-61
2023/05/14 09:59:11;;;;;;;4.10;3.60;;;;;;;17.42;61.67;98551.53;4906615;29;20232;-62
2023/05/14 10:01:43;;;;;;;4.77;3.70;;;;;;;17.67;61.81;98546.53;4886437;29;20342;-62
2023/05/14 10:04:11;;;;;;;5.47;4.20;;;;;;;17.55;60.44;98551.56;4885237;29;20252;-62
2023/05/14 10:06:46;;;;;;;4.40;3.57;;;;;;;17.37;57.40;98551.28;4902643;29;20234;-62
2023/05/14 10:09:16;;;;;;;3.93;3.23;;;;;;;17.14;59.71;98548.97;4888056;29;20738;-62
2023/05/14 10:11:49;;;;;;;4.73;4.00;;;;;;;17.49;58.17;98554.19;4908639;29;20724;-61
2023/05/14 10:14:20;;;;;;;4.87;3.40;;;;;;;17.40;60.17;98553.53;4907063;29;20228;-61
2023/05/14 10:16:49;;;;;;;4.53;4.00;;;;;;;17.99;57.29;98546.00;4910251;29;20715;-61
2023/05/14 10:19:16;;;;;;;5.40;3.80;;;;;;;17.94;58.07;98545.78;4906563;29;20238;-61
2023/05/14 10:21:47;;;;;;;5.30;3.70;;;;;;;18.20;57.75;98544.19;4910277;29;20236;-61
2023/05/14 10:24:14;;;;;;;3.20;2.90;;;;;;;18.21;55.63;98545.81;4905776;29;20223;-62
2023/05/14 10:26:45;;;;;;;3.27;2.97;;;;;;;18.33;55.93;98538.91;4909165;29;20620;-62
2023/05/14 10:29:12;;;;;;;5.23;3.40;;;;;;;18.20;55.37;98542.38;4889933;29;20247;-62
2023/05/14 10:31:47;;;;;;;3.40;2.90;;;;;;;17.92;53.46;98537.25;4909568;29;20698;-61
2023/05/14 10:34:36;;;;;;;3.40;3.10;;;;;;;17.89;53.42;98533.16;4905933;29;20239;-62
2023/05/14 10:37:04;;;;;;;3.40;3.00;;;;;;;17.36;54.47;98534.66;4909830;29;20328;-62
2023/05/14 10:39:45;;;;;;;3.20;2.83;;;;;;;18.06;55.00;98538.91;4906979;29;20616;-62
2023/05/14 10:42:16;;;;;;;3.63;2.90;;;;;;;17.92;53.60;98522.22;4906028;29;20246;-61
2023/05/14 10:44:52;;;;;;;2.97;2.60;;;;;;;18.18;53.19;98522.44;4909512;29;20290;-61
2023/05/14 10:47:19;;;;;;;2.90;2.57;;;;;;;18.41;51.78;98516.78;4906692;29;20243;-61
2023/05/14 10:49:48;;;;;;;3.73;2.87;;;;;;;18.52;51.74;98515.34;4909773;29;20295;-61
2023/05/14 10:52:18;;;;;;;4.17;2.90;;;;;;;18.53;51.39;98511.69;4906701;29;20233;-61
2023/05/14 10:54:52;;;;;;;5.90;3.10;;;;;;;18.41;51.40;98507.00;4908752;29;20240;-62
2023/05/14 10:57:22;;;;;;;3.00;2.57;;;;;;;19.04;51.62;98494.28;4906664;29;20237;-62
2023/05/14 10:59:52;;;;;;;3.27;2.97;;;;;;;18.86;51.94;98508.16;4896961;29;20241;-62
2023/05/14 11:02:24;;;;;;;3.23;2.90;;;;;;;18.93;53.16;98506.31;4906244;29;20250;-61
2023/05/14 11:04:53;;;;;;;3.07;2.77;;;;;;;18.60;53.48;98501.91;4909448;29;20241;-62
2023/05/14 11:07:23;;;;;;;4.10;2.83;;;;;;;18.53;52.08;98504.56;4905310;29;20233;-62
2023/05/14 11:09:51;;;;;;;4.00;2.50;;;;;;;18.51;55.17;98498.69;4909367;29;20236;-62
2023/05/14 11:12:18;;;;;;;4.27;2.80;;;;;;;18.22;53.60;98495.44;4906204;29;20310;-62
2023/05/14 11:14:47;;;;;;;4.07;3.00;;;;;;;18.26;54.32;98494.03;4908384;29;20236;-63
2023/05/14 11:17:15;;;;;;;3.30;2.77;;;;;;;18.41;56.07;98487.72;4904965;29;20265;-62
2023/05/14 11:19:43;;;;;;;4.17;3.53;;;;;;;18.27;52.62;98487.72;4908914;29;20249;-62
2023/05/14 11:22:12;;;;;;;4.40;3.40;;;;;;;18.28;54.40;98486.69;4904743;29;20240;-62
2023/05/14 11:24:39;;;;;;;4.40;3.40;;;;;;;18.81;54.17;98494.75;4908620;29;20232;-62
2023/05/14 11:27:07;;;;;;;3.10;2.80;;;;;;;18.76;54.64;98491.91;4909118;29;20272;-62
2023/05/14 11:29:34;;;;;;;4.10;3.00;;;;;;;18.93;51.53;98494.91;4906828;29;20315;-62
2023/05/14 11:32:04;;;;;;;3.47;3.03;;;;;;;18.08;53.63;98489.31;4909024;29;20242;-62
2023/05/14 11:34:31;;;;;;;4.73;3.13;;;;;;;18.56;54.15;98490.13;4905006;29;20248;-62
2023/05/14 11:36:58;;;;;;;3.07;2.77;;;;;;;18.70;51.17;98491.72;4907444;29;20682;-62